Time;durP1;ratioP1;P1;durP2;ratioP2;P2;SDS_P1;SDS_P2;PMS_P1;PMS_P2;Temp;Humidity;BMP_temperature;BMP_pressure;BME280_temperature;BME280_humidity;BME280_pressure;Samples;Min_cycle;Max_cycle;Signal;HPM_P1;HPM_P2
2021/03/21 00:01:10;;;;;;;7.10;3.90;;;4.50;93.30;;;;;;4994666;28;20487;-68
2021/03/21 00:03:36;;;;;;;8.50;3.47;;;4.50;93.00;;;;;;4995096;28;20034;-69
2021/03/21 00:06:03;;;;;;;7.38;3.70;;;4.50;92.90;;;;;;5014801;28;20124;-69
2021/03/21 00:08:32;;;;;;;8.45;3.53;;;4.40;92.40;;;;;;4982265;28;20399;-68
2021/03/21 00:11:05;;;;;;;7.97;3.45;;;4.40;93.00;;;;;;4998176;28;20033;-69
2021/03/21 00:13:32;;;;;;;8.77;3.80;;;4.30;92.70;;;;;;4997746;28;20033;-69
2021/03/21 00:15:59;;;;;;;9.00;3.33;;;4.30;92.90;;;;;;5016343;28;20048;-69
2021/03/21 00:18:30;;;;;;;7.53;3.63;;;4.30;92.70;;;;;;4998637;28;20025;-69
2021/03/21 00:20:56;;;;;;;9.17;3.60;;;4.30;93.60;;;;;;4998582;28;20025;-69
2021/03/21 00:23:22;;;;;;;6.30;3.22;;;4.30;93.50;;;;;;5016182;28;20292;-69
2021/03/21 00:25:49;;;;;;;12.80;3.78;;;4.30;93.30;;;;;;4998345;28;20038;-68
2021/03/21 00:28:20;;;;;;;7.22;3.72;;;4.30;93.50;;;;;;5015990;28;20506;-68
2021/03/21 00:30:48;;;;;;;9.10;2.95;;;4.20;93.60;;;;;;5002438;28;20038;-69
2021/03/21 00:33:20;;;;;;;8.88;3.92;;;4.10;93.70;;;;;;4996419;28;20062;-68
2021/03/21 00:35:46;;;;;;;6.03;2.95;;;4.00;94.30;;;;;;5006700;28;20061;-69
2021/03/21 00:38:19;;;;;;;6.70;3.22;;;4.00;94.60;;;;;;5015788;28;20093;-68
2021/03/21 00:40:45;;;;;;;7.82;3.53;;;4.00;94.60;;;;;;5015823;28;20434;-69
2021/03/21 00:43:11;;;;;;;8.68;3.72;;;4.00;94.80;;;;;;5015588;28;20064;-69
2021/03/21 00:45:37;;;;;;;10.50;4.13;;;4.00;95.20;;;;;;4996342;28;20112;-68
2021/03/21 00:48:09;;;;;;;9.40;3.33;;;4.00;95.60;;;;;;4995621;28;20552;-69
2021/03/21 00:50:35;;;;;;;6.55;3.75;;;4.00;95.90;;;;;;4979413;28;20376;-69
2021/03/21 00:53:01;;;;;;;7.35;3.42;;;4.00;95.80;;;;;;4995880;28;20037;-69
2021/03/21 00:55:27;;;;;;;6.43;3.13;;;4.00;95.10;;;;;;4996197;28;20652;-68
2021/03/21 00:57:53;;;;;;;8.00;3.78;;;4.00;95.80;;;;;;4996072;28;20034;-69
2021/03/21 01:00:59;;;;;;;6.55;3.65;;;4.10;96.00;;;;;;4978277;28;20041;-69
2021/03/21 01:03:26;;;;;;;10.57;3.70;;;4.00;95.80;;;;;;4996038;28;20030;-69
2021/03/21 01:06:06;;;;;;;8.07;3.17;;;4.00;95.80;;;;;;4962268;28;20400;-69
2021/03/21 01:08:37;;;;;;;6.30;3.35;;;4.00;95.50;;;;;;4978322;28;20042;-69
2021/03/21 01:11:22;;;;;;;7.95;3.10;;;4.00;95.40;;;;;;4995659;28;20483;-69
2021/03/21 01:13:48;;;;;;;8.48;3.20;;;4.00;96.20;;;;;;4995739;28;20042;-69
2021/03/21 01:16:26;;;;;;;9.40;3.10;;;3.90;96.20;;;;;;4984591;28;20049;-69
2021/03/21 01:18:54;;;;;;;6.03;3.17;;;3.90;96.80;;;;;;4997876;28;20058;-69
2021/03/21 01:21:23;;;;;;;6.57;3.60;;;3.90;96.80;;;;;;4997931;28;20056;-68
2021/03/21 01:23:49;;;;;;;7.85;3.35;;;3.90;96.80;;;;;;5015046;28;20383;-69
2021/03/21 01:26:19;;;;;;;6.85;3.30;;;3.90;97.40;;;;;;5015046;28;20038;-68
2021/03/21 01:28:47;;;;;;;9.13;3.75;;;3.90;97.50;;;;;;4997496;28;20125;-69
2021/03/21 01:31:18;;;;;;;7.63;2.97;;;3.90;98.20;;;;;;5014829;28;20112;-69
2021/03/21 01:33:44;;;;;;;12.13;3.53;;;3.90;98.60;;;;;;5015034;28;20426;-69
2021/03/21 01:36:35;;;;;;;7.63;3.03;;;3.80;98.90;;;;;;5014642;28;20442;-69
2021/03/21 01:39:06;;;;;;;7.07;3.58;;;3.70;99.30;;;;;;5014859;28;20046;-69
2021/03/21 01:41:36;;;;;;;6.72;2.95;;;3.70;99.80;;;;;;4997577;28;20033;-69
2021/03/21 01:44:13;;;;;;;10.32;3.08;;;3.80;99.10;;;;;;5014555;28;20441;-69
2021/03/21 01:46:48;;;;;;;7.65;2.78;;;3.80;99.30;;;;;;5007870;28;20079;-68
2021/03/21 01:49:29;;;;;;;9.63;3.85;;;3.90;98.70;;;;;;5000980;28;20049;-68
2021/03/21 01:51:58;;;;;;;8.75;3.35;;;3.90;99.30;;;;;;5034513;28;20428;-69
2021/03/21 01:54:25;;;;;;;6.20;3.28;;;3.80;99.60;;;;;;5016823;28;20072;-69
2021/03/21 01:56:53;;;;;;;9.07;3.00;;;3.80;99.50;;;;;;5016961;28;20064;-68
2021/03/21 01:59:30;;;;;;;7.22;3.10;;;3.80;99.90;;;;;;5016882;28;20032;-68
2021/03/21 02:02:01;;;;;;;7.78;3.70;;;3.80;99.90;;;;;;5016412;28;20034;-67
2021/03/21 02:04:27;;;;;;;6.03;3.03;;;3.80;99.90;;;;;;5016926;28;20033;-67
2021/03/21 02:07:25;;;;;;;8.23;3.42;;;3.70;99.90;;;;;;5033940;28;20041;-67
2021/03/21 02:10:18;;;;;;;8.90;3.92;;;3.70;99.90;;;;;;5034316;28;20044;-68
2021/03/21 02:13:11;;;;;;;9.95;3.90;;;3.70;99.90;;;;;;5033933;28;20048;-68
2021/03/21 02:16:09;;;;;;;7.75;3.58;;;3.70;99.90;;;;;;5015771;28;20022;-68
2021/03/21 02:19:02;;;;;;;10.40;4.00;;;3.70;99.90;;;;;;5014392;28;20426;-69
2021/03/21 02:21:52;;;;;;;6.32;3.50;;;3.60;99.90;;;;;;4999300;28;20034;-68
2021/03/21 02:24:32;;;;;;;11.25;4.13;;;3.70;99.90;;;;;;4997612;28;20140;-68
2021/03/21 02:27:25;;;;;;;9.20;3.97;;;3.70;99.90;;;;;;5014052;28;20109;-68
2021/03/21 02:30:06;;;;;;;8.52;4.07;;;3.60;99.90;;;;;;5012882;28;20038;-68
2021/03/21 02:33:06;;;;;;;7.78;3.80;;;3.60;99.90;;;;;;5013885;28;20033;-68
2021/03/21 02:35:55;;;;;;;7.53;3.70;;;3.70;99.90;;;;;;4971953;28;20096;-68
2021/03/21 02:38:29;;;;;;;8.05;3.88;;;3.70;99.90;;;;;;5013508;28;20042;-68
2021/03/21 02:41:09;;;;;;;9.45;3.45;;;3.60;99.90;;;;;;5013598;28;20050;-68
2021/03/21 02:43:52;;;;;;;6.93;3.38;;;3.60;99.90;;;;;;4997218;28;20088;-68
2021/03/21 02:46:38;;;;;;;9.10;3.55;;;3.60;99.90;;;;;;4997857;28;20383;-68
2021/03/21 02:49:28;;;;;;;9.80;4.10;;;3.60;99.90;;;;;;4996421;28;20026;-69
2021/03/21 02:52:00;;;;;;;6.60;3.50;;;3.60;99.90;;;;;;5013429;28;20037;-69
2021/03/21 02:54:37;;;;;;;7.75;3.58;;;3.60;99.90;;;;;;5013565;28;20058;-69
2021/03/21 02:57:21;;;;;;;10.20;4.20;;;3.60;99.90;;;;;;4996522;28;20036;-69
2021/03/21 02:59:59;;;;;;;5.90;3.13;;;3.60;99.90;;;;;;4996000;28;20442;-69
2021/03/21 03:02:37;;;;;;;8.25;3.75;;;3.60;99.90;;;;;;4996177;28;20034;-69
2021/03/21 03:05:24;;;;;;;6.93;3.88;;;3.60;99.90;;;;;;4996488;28;20076;-68
2021/03/21 03:07:59;;;;;;;7.93;3.58;;;3.60;99.90;;;;;;5013415;28;20056;-68
2021/03/21 03:10:57;;;;;;;7.10;3.60;;;3.50;99.90;;;;;;4996576;28;20088;-68
2021/03/21 03:13:54;;;;;;;8.55;3.75;;;3.60;99.90;;;;;;4996350;28;20117;-67
2021/03/21 03:16:29;;;;;;;7.78;3.42;;;3.60;99.90;;;;;;5020306;28;20494;-68
2021/03/21 03:19:30;;;;;;;6.45;3.13;;;3.60;99.90;;;;;;5032957;28;20466;-68
2021/03/21 03:22:03;;;;;;;7.43;3.00;;;3.60;99.90;;;;;;5032912;28;20204;-68
2021/03/21 03:24:41;;;;;;;8.93;3.28;;;3.60;99.90;;;;;;5015588;28;20052;-68
2021/03/21 03:27:54;;;;;;;9.38;3.92;;;3.60;99.90;;;;;;5016339;28;20074;-68
2021/03/21 03:30:28;;;;;;;9.05;3.10;;;3.60;99.90;;;;;;5032630;28;20033;-68
2021/03/21 03:32:54;;;;;;;7.22;3.83;;;3.70;99.90;;;;;;5015435;28;20107;-68
2021/03/21 03:35:23;;;;;;;7.25;3.38;;;3.60;99.90;;;;;;5032582;28;20033;-68
2021/03/21 03:37:49;;;;;;;7.07;3.50;;;3.60;99.90;;;;;;5032204;28;20037;-68
2021/03/21 03:40:17;;;;;;;9.73;3.20;;;3.60;99.90;;;;;;4998246;28;20490;-68
2021/03/21 03:43:16;;;;;;;10.07;3.97;;;3.60;99.90;;;;;;5014896;28;20030;-68
2021/03/21 03:45:53;;;;;;;9.70;3.80;;;3.70;99.90;;;;;;5014485;28;20033;-68
2021/03/21 03:48:31;;;;;;;8.48;3.97;;;3.80;99.90;;;;;;5012460;28;20088;-68
2021/03/21 03:51:27;;;;;;;7.32;3.33;;;3.80;99.90;;;;;;5012492;28;20041;-68
2021/03/21 03:54:25;;;;;;;7.65;3.63;;;3.80;99.90;;;;;;4996710;28;20037;-68
2021/03/21 03:56:54;;;;;;;6.75;3.85;;;3.60;99.90;;;;;;4997050;28;20033;-68
2021/03/21 04:00:00;;;;;;;6.75;2.78;;;3.50;99.90;;;;;;5012400;28;20080;-69
2021/03/21 04:02:44;;;;;;;6.65;3.17;;;3.50;99.90;;;;;;5011205;28;20502;-68
2021/03/21 04:05:38;;;;;;;8.65;3.90;;;3.50;99.90;;;;;;5012240;28;20096;-68
2021/03/21 04:08:23;;;;;;;9.05;3.45;;;3.60;99.90;;;;;;4979130;28;20022;-69
2021/03/21 04:11:03;;;;;;;7.10;3.38;;;3.60;99.90;;;;;;4995545;28;20038;-68
2021/03/21 04:13:45;;;;;;;8.30;3.20;;;3.60;99.90;;;;;;4996258;28;20029;-68
2021/03/21 04:16:23;;;;;;;6.47;3.33;;;3.60;99.90;;;;;;4995090;28;20052;-68
2021/03/21 04:19:07;;;;;;;8.63;3.25;;;3.60;99.90;;;;;;4995538;28;20483;-68
2021/03/21 04:21:47;;;;;;;5.78;3.08;;;3.60;99.90;;;;;;4979358;28;20071;-69
2021/03/21 04:24:40;;;;;;;9.73;3.08;;;3.70;99.90;;;;;;4995495;28;20062;-68
2021/03/21 04:27:17;;;;;;;8.40;3.38;;;3.80;99.90;;;;;;4968801;28;20041;-68
2021/03/21 04:30:09;;;;;;;4.93;2.80;;;3.90;99.90;;;;;;4978360;28;20056;-68
2021/03/21 04:32:49;;;;;;;6.18;2.85;;;4.00;99.90;;;;;;5012150;28;20042;-68
2021/03/21 04:35:23;;;;;;;6.25;2.88;;;4.00;99.90;;;;;;4994834;28;20554;-68
2021/03/21 04:38:22;;;;;;;7.35;3.33;;;3.80;99.90;;;;;;4994539;28;20049;-68
2021/03/21 04:40:48;;;;;;;12.32;3.80;;;3.70;99.90;;;;;;4997341;28;20427;-68
2021/03/21 04:43:24;;;;;;;6.63;2.92;;;3.50;99.90;;;;;;5012173;28;20065;-68
2021/03/21 04:45:54;;;;;;;10.27;3.17;;;3.50;99.90;;;;;;4998811;28;20112;-68
2021/03/21 04:48:24;;;;;;;8.53;3.40;;;3.50;99.90;;;;;;5031451;28;20036;-68
2021/03/21 04:51:02;;;;;;;6.13;3.05;;;3.50;99.90;;;;;;5014511;28;20036;-68
2021/03/21 04:53:44;;;;;;;9.55;3.63;;;3.40;99.90;;;;;;5034779;28;20088;-68
2021/03/21 04:56:57;;;;;;;9.13;3.60;;;3.40;99.90;;;;;;5017995;28;20041;-68
2021/03/21 04:59:32;;;;;;;8.10;3.00;;;3.40;99.90;;;;;;5032097;28;20041;-69
2021/03/21 05:02:12;;;;;;;6.65;4.07;;;3.40;99.90;;;;;;5017848;28;20055;-68
2021/03/21 05:04:57;;;;;;;7.97;3.50;;;3.40;99.90;;;;;;5018631;28;20558;-68
2021/03/21 05:07:33;;;;;;;6.95;3.83;;;3.40;99.90;;;;;;5001516;28;20069;-68
2021/03/21 05:10:26;;;;;;;7.43;3.47;;;3.50;99.90;;;;;;5035321;28;20090;-68
2021/03/21 05:13:06;;;;;;;9.00;3.17;;;3.40;99.90;;;;;;5035179;28;20025;-68
2021/03/21 05:15:50;;;;;;;5.55;2.85;;;3.40;99.90;;;;;;5017278;28;20042;-69
2021/03/21 05:19:32;;;;;;;9.02;3.78;;;3.40;99.90;;;;;;5002716;28;20034;-68
2021/03/21 05:22:16;;;;;;;9.60;3.43;;;3.50;99.90;;;;;;4897426;29;20514;-68
2021/03/21 05:24:58;;;;;;;6.60;3.28;;;3.50;99.90;;;;;;4897364;29;20041;-68
2021/03/21 05:27:40;;;;;;;5.72;3.00;;;3.50;99.90;;;;;;4897361;29;20048;-68
2021/03/21 05:30:29;;;;;;;5.20;3.15;;;3.50;99.90;;;;;;4897129;29;20037;-68
2021/03/21 05:32:55;;;;;;;5.50;2.90;;;3.50;99.90;;;;;;4897176;29;20040;-68
2021/03/21 05:35:30;;;;;;;5.40;2.92;;;3.50;99.90;;;;;;4897090;29;20048;-68
2021/03/21 05:38:39;;;;;;;6.97;2.67;;;3.60;99.90;;;;;;4897003;29;20051;-68
2021/03/21 05:41:35;;;;;;;5.57;2.97;;;3.70;99.90;;;;;;4896898;29;20045;-68
2021/03/21 05:45:21;;;;;;;6.22;2.88;;;3.80;99.90;;;;;;4897121;29;20064;-68
2021/03/21 05:48:20;;;;;;;6.47;2.70;;;3.80;99.90;;;;;;4856607;29;20044;-68
2021/03/21 05:51:21;;;;;;;6.85;3.15;;;3.80;99.90;;;;;;4896902;29;20157;-68
2021/03/21 05:54:21;;;;;;;5.82;2.75;;;3.80;99.90;;;;;;4995229;28;20026;-68
2021/03/21 05:57:28;;;;;;;6.82;3.03;;;3.70;99.90;;;;;;4995157;28;20121;-69
2021/03/21 06:00:11;;;;;;;8.73;2.90;;;3.70;99.90;;;;;;4947055;28;20052;-69
2021/03/21 06:03:26;;;;;;;7.82;2.88;;;3.70;99.90;;;;;;4994601;28;20053;-69
2021/03/21 06:06:49;;;;;;;6.00;2.63;;;3.60;99.90;;;;;;4994661;28;20034;-69
2021/03/21 06:10:03;;;;;;;5.68;2.75;;;3.60;99.90;;;;;;4944758;28;20050;-68
2021/03/21 06:13:13;;;;;;;5.90;2.60;;;3.70;99.90;;;;;;4981172;28;20042;-68
2021/03/21 06:16:04;;;;;;;5.28;2.60;;;3.70;99.90;;;;;;4994663;28;20041;-68
2021/03/21 06:19:14;;;;;;;6.28;3.30;;;3.70;99.90;;;;;;4994256;28;20517;-69
2021/03/21 06:21:42;;;;;;;6.55;2.53;;;3.70;99.90;;;;;;4946001;28;20050;-68
2021/03/21 06:24:44;;;;;;;5.18;2.63;;;3.70;99.90;;;;;;4994268;28;20447;-69
2021/03/21 06:28:00;;;;;;;5.75;3.40;;;3.70;99.90;;;;;;4994683;28;20039;-68
2021/03/21 06:30:59;;;;;;;6.60;2.95;;;3.70;99.90;;;;;;4990273;28;20050;-68
2021/03/21 06:34:04;;;;;;;9.68;3.42;;;3.80;99.90;;;;;;4978161;28;20574;-67
2021/03/21 06:36:41;;;;;;;7.53;3.83;;;3.70;99.90;;;;;;4978993;28;20038;-66
2021/03/21 06:39:44;;;;;;;7.43;3.40;;;3.80;99.90;;;;;;5012512;28;20509;-67
2021/03/21 06:42:53;;;;;;;6.38;2.60;;;3.80;99.90;;;;;;5008761;28;20037;-67
2021/03/21 06:46:18;;;;;;;9.07;2.83;;;3.90;99.90;;;;;;5001003;28;20053;-68
2021/03/21 06:48:52;;;;;;;10.30;3.67;;;4.00;99.90;;;;;;4994238;28;20471;-68
2021/03/21 06:51:45;;;;;;;8.40;3.55;;;4.00;99.90;;;;;;4993887;28;20034;-69
2021/03/21 06:54:47;;;;;;;4.57;2.33;;;4.30;99.90;;;;;;4993627;28;20049;-70
2021/03/21 06:58:02;;;;;;;5.47;2.65;;;4.40;99.90;;;;;;4993802;28;20054;-67
2021/03/21 07:00:58;;;;;;;4.35;2.40;;;4.40;99.90;;;;;;4993439;28;20121;-65
2021/03/21 07:04:10;;;;;;;8.52;3.00;;;4.50;99.90;;;;;;4993702;28;20030;-67
2021/03/21 07:07:23;;;;;;;5.50;2.53;;;4.60;99.90;;;;;;4979026;28;20022;-69
2021/03/21 07:10:07;;;;;;;8.02;3.65;;;4.70;99.90;;;;;;4993259;28;20061;-68
2021/03/21 07:13:35;;;;;;;4.68;2.65;;;4.80;99.90;;;;;;4993617;28;20058;-67
2021/03/21 07:16:42;;;;;;;7.55;3.28;;;4.70;99.90;;;;;;4970031;28;20058;-67
2021/03/21 07:19:36;;;;;;;5.75;2.70;;;4.60;99.90;;;;;;4993412;28;20383;-67
2021/03/21 07:22:34;;;;;;;5.05;2.55;;;4.50;99.90;;;;;;5012017;28;20042;-70
2021/03/21 07:25:30;;;;;;;6.60;2.92;;;4.50;99.90;;;;;;5012837;28;20112;-68
2021/03/21 07:28:23;;;;;;;6.63;2.70;;;4.50;99.90;;;;;;5012935;28;20025;-69
2021/03/21 07:31:41;;;;;;;8.20;3.08;;;4.50;99.90;;;;;;5012440;28;20541;-71
2021/03/21 07:34:28;;;;;;;6.18;3.00;;;4.60;99.90;;;;;;4993484;28;20038;-71
2021/03/21 07:37:30;;;;;;;5.65;2.88;;;4.60;99.90;;;;;;4994745;28;20046;-71
2021/03/21 07:40:02;;;;;;;6.80;3.08;;;4.60;99.90;;;;;;5024996;28;20048;-68
2021/03/21 07:42:38;;;;;;;7.60;2.65;;;4.60;99.90;;;;;;5012468;28;20034;-72
2021/03/21 07:45:34;;;;;;;5.00;2.55;;;4.60;99.90;;;;;;5012491;28;20491;-69
2021/03/21 07:48:31;;;;;;;7.28;2.60;;;4.70;99.90;;;;;;5010094;28;20046;-70
2021/03/21 07:51:27;;;;;;;5.50;3.25;;;4.60;99.90;;;;;;5011868;28;20034;-71
2021/03/21 07:54:42;;;;;;;5.72;2.63;;;4.70;99.90;;;;;;5012369;28;20057;-70
2021/03/21 07:57:57;;;;;;;8.32;3.15;;;4.70;99.90;;;;;;5011822;28;20041;-70
2021/03/21 08:00:23;;;;;;;7.38;3.25;;;4.60;99.90;;;;;;4979646;28;20058;-70
2021/03/21 08:02:54;;;;;;;9.85;3.67;;;4.60;99.90;;;;;;4992696;28;20502;-69
2021/03/21 08:05:26;;;;;;;6.67;3.50;;;4.60;99.90;;;;;;5000760;28;20029;-69
2021/03/21 08:07:54;;;;;;;5.78;2.97;;;4.70;99.90;;;;;;5001384;28;20033;-72
2021/03/21 08:10:34;;;;;;;8.68;3.53;;;4.70;99.90;;;;;;5000855;28;20026;-72
2021/03/21 08:13:22;;;;;;;10.95;3.55;;;4.70;99.90;;;;;;5004076;28;20084;-74
2021/03/21 08:15:48;;;;;;;7.07;2.95;;;4.70;99.90;;;;;;5012499;28;20475;-73
2021/03/21 08:18:22;;;;;;;5.53;2.88;;;4.70;99.90;;;;;;4994705;28;20034;-72
2021/03/21 08:21:02;;;;;;;6.38;3.05;;;4.60;99.90;;;;;;4996102;28;20471;-77
2021/03/21 08:23:40;;;;;;;6.40;2.95;;;4.70;99.90;;;;;;5010786;28;20045;-71
2021/03/21 08:26:15;;;;;;;7.22;2.90;;;4.80;99.90;;;;;;5012519;28;20037;-73
2021/03/21 08:29:01;;;;;;;7.20;3.22;;;4.90;99.90;;;;;;5015227;28;20034;-73
2021/03/21 08:31:32;;;;;;;8.60;2.83;;;4.90;99.90;;;;;;5015842;28;20030;-73
2021/03/21 08:34:27;;;;;;;6.13;3.25;;;5.00;99.90;;;;;;4997447;28;20037;-73
2021/03/21 08:36:52;;;;;;;8.10;3.35;;;5.10;99.90;;;;;;5014793;28;20053;-73
2021/03/21 08:39:34;;;;;;;5.88;3.22;;;5.10;99.90;;;;;;5016516;28;20037;-73
2021/03/21 08:42:01;;;;;;;49.83;23.73;;;5.10;99.90;;;;;;5017653;28;20044;-73
2021/03/21 08:45:05;;;;;;;10.18;5.40;;;5.20;99.90;;;;;;5017499;28;20108;-73
2021/03/21 08:47:34;;;;;;;7.05;4.10;;;5.30;99.90;;;;;;5034955;28;20030;-73
2021/03/21 08:50:44;;;;;;;6.18;3.60;;;5.30;99.90;;;;;;5014221;28;20045;-74
2021/03/21 08:53:45;;;;;;;11.75;4.97;;;5.60;99.90;;;;;;5019959;28;20378;-75
2021/03/21 08:56:40;;;;;;;9.23;3.97;;;5.60;99.90;;;;;;5020662;28;20063;-75
2021/03/21 08:59:36;;;;;;;8.15;4.10;;;5.50;99.90;;;;;;5018431;28;20033;-73
2021/03/21 09:02:16;;;;;;;9.60;4.57;;;5.50;99.90;;;;;;5028020;28;20088;-73
2021/03/21 09:04:44;;;;;;;12.57;4.35;;;5.50;99.90;;;;;;5000654;28;20038;-73
2021/03/21 09:07:27;;;;;;;9.15;4.30;;;5.50;99.90;;;;;;5017855;28;20496;-73
2021/03/21 09:10:10;;;;;;;8.35;4.32;;;5.50;99.90;;;;;;5014993;28;20041;-73
2021/03/21 09:13:10;;;;;;;9.57;4.53;;;5.50;99.90;;;;;;5005623;28;20096;-73
2021/03/21 09:15:39;;;;;;;12.27;4.82;;;5.60;99.90;;;;;;5007459;28;20136;-76
2021/03/21 09:18:17;;;;;;;13.73;5.28;;;5.80;99.90;;;;;;4996224;28;20149;-76
2021/03/21 09:21:01;;;;;;;9.20;4.85;;;5.70;99.90;;;;;;5013980;28;20494;-77
2021/03/21 09:23:42;;;;;;;11.73;4.57;;;5.80;99.90;;;;;;5012423;28;20041;-76
2021/03/21 09:26:16;;;;;;;9.65;4.85;;;5.80;99.90;;;;;;5014675;28;20075;-76
2021/03/21 09:29:18;;;;;;;16.23;7.72;;;5.80;99.90;;;;;;5014602;28;20036;-76
2021/03/21 09:31:47;;;;;;;11.82;5.95;;;5.80;99.90;;;;;;5013643;28;20545;-76
2021/03/21 09:34:43;;;;;;;9.15;4.68;;;6.00;99.90;;;;;;4997531;28;20041;-76
2021/03/21 09:37:20;;;;;;;8.80;4.40;;;6.10;99.90;;;;;;5018082;28;20053;-77
2021/03/21 09:40:29;;;;;;;12.70;5.20;;;6.20;99.90;;;;;;5000360;28;20040;-77
2021/03/21 09:42:55;;;;;;;12.18;5.40;;;6.30;99.90;;;;;;4954367;28;20088;-77
2021/03/21 09:45:21;;;;;;;10.63;5.20;;;6.20;99.90;;;;;;5034587;28;20037;-76
2021/03/21 09:48:04;;;;;;;11.57;6.00;;;6.20;99.90;;;;;;5034657;28;20026;-76
2021/03/21 09:50:57;;;;;;;9.57;5.03;;;6.20;99.90;;;;;;5034189;28;20056;-75
2021/03/21 09:54:00;;;;;;;11.75;6.45;;;6.20;99.90;;;;;;5034030;28;20482;-77
2021/03/21 09:56:45;;;;;;;10.60;5.18;;;6.20;99.90;;;;;;5034344;28;20040;-76
2021/03/21 09:59:51;;;;;;;12.50;6.85;;;6.30;99.90;;;;;;5033832;28;20418;-77
2021/03/21 10:02:48;;;;;;;13.32;7.05;;;6.30;99.90;;;;;;5017402;28;20116;-76
2021/03/21 10:05:36;;;;;;;13.95;7.20;;;6.30;99.90;;;;;;5034098;28;20025;-76
2021/03/21 10:08:21;;;;;;;13.63;6.07;;;6.30;99.90;;;;;;5006292;28;20387;-76
2021/03/21 10:11:09;;;;;;;12.13;6.03;;;6.40;99.90;;;;;;4980439;28;20103;-75
2021/03/21 10:13:46;;;;;;;12.05;5.75;;;6.30;99.90;;;;;;5013121;28;20109;-75
2021/03/21 10:16:15;;;;;;;11.25;5.78;;;6.30;99.90;;;;;;5013300;28;20030;-76
2021/03/21 10:19:00;;;;;;;9.38;4.65;;;6.40;99.90;;;;;;5014215;28;20030;-76
2021/03/21 10:21:25;;;;;;;10.70;4.53;;;6.50;99.90;;;;;;5014069;28;20076;-76
2021/03/21 10:23:51;;;;;;;9.43;4.40;;;6.60;99.90;;;;;;5013860;28;20077;-76
2021/03/21 10:26:25;;;;;;;10.70;4.97;;;6.80;99.90;;;;;;5014283;28;20045;-76
2021/03/21 10:29:09;;;;;;;14.15;5.13;;;6.80;99.90;;;;;;5012845;28;20076;-76
2021/03/21 10:31:37;;;;;;;11.55;4.68;;;6.70;99.90;;;;;;5013815;28;20069;-76
2021/03/21 10:34:03;;;;;;;11.82;5.70;;;6.80;99.90;;;;;;5012634;28;20048;-75
2021/03/21 10:36:48;;;;;;;9.07;4.45;;;6.80;99.90;;;;;;5014074;28;20605;-74
2021/03/21 10:39:23;;;;;;;7.35;4.28;;;6.80;99.90;;;;;;4993102;28;20038;-76
2021/03/21 10:42:09;;;;;;;7.70;4.38;;;6.60;99.90;;;;;;4994115;28;20073;-72
2021/03/21 10:44:35;;;;;;;9.63;4.70;;;6.70;99.90;;;;;;4996077;28;20029;-76
2021/03/21 10:47:25;;;;;;;10.70;4.80;;;6.60;99.90;;;;;;5033262;28;20040;-77
2021/03/21 10:50:27;;;;;;;8.20;4.13;;;6.60;99.90;;;;;;5016144;28;20041;-76
2021/03/21 10:53:33;;;;;;;9.90;4.28;;;6.50;99.90;;;;;;5018656;28;20121;-76
2021/03/21 10:56:21;;;;;;;11.57;4.00;;;6.50;99.90;;;;;;5033054;28;20079;-77
2021/03/21 10:58:47;;;;;;;7.70;4.20;;;6.30;99.90;;;;;;5033262;28;20030;-77
2021/03/21 11:01:22;;;;;;;9.18;4.95;;;6.40;99.90;;;;;;5032863;28;20504;-77
2021/03/21 11:04:16;;;;;;;7.95;4.10;;;6.30;99.90;;;;;;5033168;28;20152;-78
2021/03/21 11:06:53;;;;;;;7.95;4.05;;;6.20;99.90;;;;;;5017527;28;20033;-77
2021/03/21 11:09:25;;;;;;;7.22;4.63;;;6.40;99.90;;;;;;4993649;28;20027;-78
2021/03/21 11:11:52;;;;;;;9.85;4.18;;;6.80;99.90;;;;;;4993860;28;20042;-77
2021/03/21 11:14:24;;;;;;;7.28;3.42;;;6.80;99.90;;;;;;4993711;28;20081;-77
2021/03/21 11:17:02;;;;;;;7.05;3.35;;;6.90;99.90;;;;;;4993603;28;20034;-77
2021/03/21 11:19:33;;;;;;;5.00;2.67;;;7.20;99.90;;;;;;4993416;28;20471;-76
2021/03/21 11:22:37;;;;;;;6.22;3.00;;;7.40;99.90;;;;;;4960412;28;20026;-76
2021/03/21 11:25:06;;;;;;;5.57;3.03;;;7.50;99.90;;;;;;4960662;28;20057;-76
2021/03/21 11:27:36;;;;;;;5.43;3.13;;;7.80;99.90;;;;;;4993230;28;20172;-78
2021/03/21 11:30:27;;;;;;;8.35;3.35;;;8.00;99.90;;;;;;4993115;28;20022;-76
2021/03/21 11:33:25;;;;;;;8.43;3.40;;;8.20;99.90;;;;;;4975635;28;20050;-76
2021/03/21 11:35:50;;;;;;;8.13;4.13;;;8.20;99.90;;;;;;4993092;28;20038;-76
2021/03/21 11:38:40;;;;;;;6.53;2.95;;;8.20;99.90;;;;;;4987689;28;20076;-75
2021/03/21 11:41:31;;;;;;;5.55;3.10;;;8.10;99.90;;;;;;4994519;28;20112;-76
2021/03/21 11:44:31;;;;;;;7.07;3.30;;;8.00;99.90;;;;;;4994731;28;20489;-75
2021/03/21 11:47:26;;;;;;;7.45;3.75;;;8.00;99.90;;;;;;4994516;28;20037;-75
2021/03/21 11:49:54;;;;;;;6.88;3.08;;;8.00;99.90;;;;;;4994814;28;20030;-76
2021/03/21 11:52:20;;;;;;;6.35;3.10;;;8.00;99.90;;;;;;5012553;28;20424;-75
2021/03/21 11:54:46;;;;;;;6.78;3.38;;;8.10;99.90;;;;;;4978816;28;20033;-75
2021/03/21 11:57:36;;;;;;;9.07;3.92;;;8.20;99.90;;;;;;5012773;28;20049;-76
2021/03/21 12:00:46;;;;;;;8.55;3.33;;;8.10;99.90;;;;;;5012744;28;20076;-76
2021/03/21 12:03:15;;;;;;;7.13;3.58;;;8.30;99.90;;;;;;5012645;28;20060;-77
2021/03/21 12:05:56;;;;;;;8.00;3.75;;;8.40;99.90;;;;;;5012512;28;20084;-74
2021/03/21 12:08:36;;;;;;;6.95;3.97;;;8.60;99.90;;;;;;5012181;28;20073;-76
2021/03/21 12:11:19;;;;;;;5.57;3.28;;;8.60;99.90;;;;;;4978866;28;20066;-75
2021/03/21 12:13:45;;;;;;;10.05;3.63;;;8.70;99.90;;;;;;5012268;28;20088;-77
2021/03/21 12:16:38;;;;;;;7.68;3.78;;;8.70;99.90;;;;;;4994910;28;20387;-76
2021/03/21 12:19:25;;;;;;;7.30;3.72;;;8.80;99.90;;;;;;5012573;28;20076;-75
2021/03/21 12:21:57;;;;;;;7.10;3.55;;;8.90;99.90;;;;;;4997121;28;20528;-72
2021/03/21 12:24:25;;;;;;;7.65;4.35;;;9.00;99.90;;;;;;4995142;28;20541;-74
2021/03/21 12:26:55;;;;;;;7.93;4.03;;;9.10;99.90;;;;;;4994727;28;20084;-74
2021/03/21 12:29:24;;;;;;;8.57;3.60;;;9.20;99.90;;;;;;5012588;28;20041;-76
2021/03/21 12:31:53;;;;;;;10.23;4.18;;;9.10;99.90;;;;;;5011989;28;20809;-75
2021/03/21 12:34:51;;;;;;;8.02;4.03;;;9.20;99.90;;;;;;4994563;28;20034;-76
2021/03/21 12:37:22;;;;;;;7.13;3.72;;;9.20;99.90;;;;;;5014867;28;20046;-75
2021/03/21 12:40:11;;;;;;;8.93;4.68;;;9.20;99.90;;;;;;5013258;28;20038;-77
2021/03/21 12:42:47;;;;;;;9.13;4.43;;;9.10;99.90;;;;;;5012046;28;20483;-71
2021/03/21 12:45:27;;;;;;;7.40;4.07;;;9.10;99.90;;;;;;4994932;28;20529;-73
2021/03/21 12:47:53;;;;;;;10.07;4.93;;;9.00;99.90;;;;;;5012108;28;20084;-73
2021/03/21 12:50:34;;;;;;;11.32;4.85;;;9.00;99.90;;;;;;5012210;28;20057;-75
2021/03/21 12:53:09;;;;;;;6.72;3.83;;;9.10;99.90;;;;;;5012086;28;20041;-74
2021/03/21 12:55:35;;;;;;;8.98;4.25;;;9.20;99.90;;;;;;4995789;28;20514;-78
2021/03/21 12:58:01;;;;;;;7.68;4.35;;;9.20;99.90;;;;;;4978226;28;20052;-70
2021/03/21 13:00:32;;;;;;;7.20;4.10;;;9.10;99.90;;;;;;5012196;28;20390;-71
2021/03/21 13:03:02;;;;;;;10.88;4.40;;;9.20;99.90;;;;;;4994853;28;20037;-69
2021/03/21 13:05:37;;;;;;;7.25;4.00;;;9.30;99.90;;;;;;5012253;28;20042;-68
2021/03/21 13:08:05;;;;;;;9.95;4.60;;;9.30;99.90;;;;;;5022280;28;20029;-69
2021/03/21 13:10:33;;;;;;;10.13;4.93;;;9.20;99.90;;;;;;5031710;28;20036;-68
2021/03/21 13:13:01;;;;;;;8.38;4.70;;;9.20;99.90;;;;;;5032186;28;20029;-69
2021/03/21 13:15:27;;;;;;;9.27;5.20;;;9.20;99.90;;;;;;5017777;28;20112;-69
2021/03/21 13:17:53;;;;;;;11.82;4.93;;;9.30;99.90;;;;;;5035171;28;20057;-70
2021/03/21 13:20:21;;;;;;;7.97;4.85;;;9.50;99.90;;;;;;5035206;28;20383;-70
2021/03/21 13:22:48;;;;;;;8.70;4.20;;;9.80;99.90;;;;;;5035013;28;20034;-69
2021/03/21 13:25:23;;;;;;;8.30;4.15;;;10.00;99.90;;;;;;5035213;28;20060;-75
2021/03/21 13:27:56;;;;;;;7.45;4.38;;;10.30;99.90;;;;;;5031008;28;20083;-73
2021/03/21 13:30:27;;;;;;;7.82;4.32;;;10.40;99.90;;;;;;5017471;28;20116;-75
2021/03/21 13:32:54;;;;;;;7.72;4.30;;;10.10;99.90;;;;;;5034802;28;20033;-72
2021/03/21 13:35:22;;;;;;;7.65;4.05;;;10.00;99.90;;;;;;5034945;28;20103;-74
2021/03/21 13:37:49;;;;;;;8.60;5.05;;;10.00;99.90;;;;;;5025677;28;20038;-73
2021/03/21 13:40:32;;;;;;;9.13;4.10;;;10.10;99.90;;;;;;4998071;28;20037;-73
2021/03/21 13:43:01;;;;;;;8.68;3.55;;;10.40;99.40;;;;;;5014899;28;20034;-74
2021/03/21 13:45:32;;;;;;;8.40;5.18;;;10.50;99.30;;;;;;4997430;28;20480;-74
2021/03/21 13:47:58;;;;;;;4.70;2.93;;;11.30;98.90;;;;;;5014671;28;20041;-73
2021/03/21 13:50:25;;;;;;;6.55;2.88;;;12.40;93.80;;;;;;5014761;28;20376;-73
2021/03/21 13:52:51;;;;;;;4.40;2.80;;;12.70;92.50;;;;;;5014489;28;20026;-74
2021/03/21 13:55:31;;;;;;;5.88;2.97;;;12.60;91.70;;;;;;4997244;28;20040;-72
2021/03/21 13:57:58;;;;;;;7.20;3.72;;;12.40;92.00;;;;;;5014739;28;20026;-73
2021/03/21 14:00:25;;;;;;;5.95;3.38;;;11.90;94.10;;;;;;5014777;28;20032;-73
2021/03/21 14:02:51;;;;;;;6.15;2.97;;;11.60;95.40;;;;;;5014563;28;20053;-73
2021/03/21 14:05:18;;;;;;;5.30;3.00;;;11.60;95.50;;;;;;4997135;28;20114;-73
2021/03/21 14:07:44;;;;;;;6.43;3.25;;;11.40;95.50;;;;;;5004787;28;20061;-72
2021/03/21 14:10:12;;;;;;;8.38;4.20;;;11.30;96.00;;;;;;5034212;28;20029;-73
2021/03/21 14:12:38;;;;;;;4.22;2.80;;;11.40;96.60;;;;;;5016154;28;20021;-74